• Join FlightAware (Why Join?)
  • Login
  • US Flag 
02:18PM EDT


 

Airport Tracker/Info


-or-


 

Live Flight TrackerFlight Track Log ✈ UPS214 ✈ 17-Jul-2013 ✈ EDDK / CGN - KSDF

Flight Track Log - Related Links

Times and Time Zones

All times are in EDT time to prevent confusion due to time zone crossing. See the UPS214 flight status page for this flight to view local times or setup timezone preferences in your user account.

Time Position Orientation Groundspeed Altitude Reporting Facility
EDT Latitude Longitude Course Direction KTS MPH feet Rate Location/Type
05:31PM 52.1189 3.1279 298° West  Level Estimated
05:32PM 52.1431 3.0434 295° West  Level Estimated
05:33PM 52.1672 2.9588 295° West  Level Estimated
05:34PM 52.1913 2.8741 295° West  Level Estimated
05:35PM 52.2153 2.7893 295° West  Level Estimated
05:36PM 52.2393 2.7044 295° West  Level Estimated
05:37PM 52.2632 2.6195 295° West  Level Estimated
05:38PM 52.2870 2.5344 295° West  Level Estimated
05:39PM 52.3108 2.4492 295° West  Level Estimated
05:40PM 52.3345 2.3640 295° West  Level Estimated
05:41PM 52.3582 2.2787 294° West  Level Estimated
05:42PM 52.3818 2.1932 294° West  Level Estimated
05:43PM 52.4053 2.1077 294° West  Level Estimated
05:44PM 52.4288 2.0221 294° West  Level Estimated
05:45PM 52.4522 1.9364 294° West  Level Estimated
05:46PM 52.4755 1.8506 294° West  Level Estimated
05:47PM 52.4988 1.7647 294° West  Level Estimated
05:48PM 52.5220 1.6787 294° West  Level Estimated
05:49PM 52.5452 1.5927 294° West  Level Estimated
05:50PM 52.5683 1.5065 294° West  Level Estimated
05:51PM 52.5913 1.4202 294° West  Level Estimated
05:52PM 52.6143 1.3339 294° West  Level Estimated
05:53PM 52.6372 1.2475 294° West  Level Estimated
05:54PM 52.6600 1.1609 294° West  Level Estimated
05:55PM 52.6828 1.0743 293° West  Level Estimated
05:56PM 52.7055 0.9876 293° West  Level Estimated
05:57PM 52.7282 0.9008 293° West  Level Estimated
05:58PM 52.7508 0.8140 293° West  Level Estimated
05:59PM 52.7733 0.7270 293° West  Level Estimated
06:00PM 52.7957 0.6399 293° West  Level Estimated
06:01PM 52.8181 0.5528 293° West  Level Estimated
06:02PM 52.8405 0.4656 293° West  Level Estimated
06:03PM 52.8628 0.3782 293° West  Level Estimated
06:04PM 52.8850 0.2908 293° West  Level Estimated
06:05PM 52.9071 0.2033 293° West  Level Estimated
06:06PM 52.9292 0.1157 293° West  Level Estimated
06:07PM 52.9512 0.0280 293° West  Level Estimated
06:08PM 52.9731 -0.0598 293° West  Level Estimated
06:09PM 52.9950 -0.1477 293° West  Level Estimated
06:10PM 53.0169 -0.2356 292° West  Level Estimated
06:11PM 53.0386 -0.3237 292° West  Level Estimated
06:12PM 53.0603 -0.4118 292° West  Level Estimated
06:13PM 53.0819 -0.5000 292° West  Level Estimated
06:14PM 53.1035 -0.5883 292° West  Level Estimated
06:15PM 53.1250 -0.6767 292° West  Level Estimated
06:16PM 53.1464 -0.7652 292° West  Level Estimated
06:17PM 53.1678 -0.8538 292° West  Level Estimated
06:18PM 53.1891 -0.9424 292° West  Level Estimated
06:19PM 53.2103 -1.0312 292° West  Level Estimated
06:20PM 53.2315 -1.1200 292° West  Level Estimated
06:21PM 53.2526 -1.2090 292° West  Level Estimated
06:22PM 53.2736 -1.2980 292° West  Level Estimated
06:23PM 53.2946 -1.3871 292° West  Level Estimated
06:24PM 53.3155 -1.4763 291° West  Level Estimated
06:25PM 53.3363 -1.5656 291° West  Level Estimated
06:26PM 53.3571 -1.6549 291° West  Level Estimated
06:27PM 53.3778 -1.7444 291° West  Level Estimated
06:28PM 53.3984 -1.8339 291° West  Level Estimated
06:29PM 53.4190 -1.9236 291° West  Level Estimated
06:30PM 53.4395 -2.0133 291° West  Level Estimated
06:31PM 53.4599 -2.1031 291° West  Level Estimated
06:32PM 53.4803 -2.1929 291° West  Level Estimated
06:33PM 53.5006 -2.2829 291° West  Level Estimated
06:34PM 53.5208 -2.3730 291° West  Level Estimated
06:35PM 53.5410 -2.4631 291° West  Level Estimated
06:36PM 53.5611 -2.5533 291° West  Level Estimated
06:37PM 53.5811 -2.6437 291° West  Level Estimated
06:38PM 53.6010 -2.7341 290° West  Level Estimated
06:39PM 53.6209 -2.8245 290° West  Level Estimated
06:40PM 53.6408 -2.9151 290° West  Level Estimated
06:41PM 53.6605 -3.0058 290° West  Level Estimated
06:42PM 53.6802 -3.0965 290° West  Level Estimated
06:43PM 53.6998 -3.1873 290° West  Level Estimated
06:44PM 53.7193 -3.2782 290° West  Level Estimated
06:45PM 53.7388 -3.3692 290° West  Level Estimated
06:46PM 53.7582 -3.4603 290° West  Level Estimated
06:47PM 53.7776 -3.5515 290° West  Level Estimated
06:48PM 53.7968 -3.6427 290° West  Level Estimated
06:49PM 53.8161 -3.7341 290° West  Level Estimated
06:50PM 53.8352 -3.8255 290° West  Level Estimated
06:51PM 53.8542 -3.9170 289° West  Level Estimated
06:52PM 53.8732 -4.0086 289° West  Level Estimated
06:53PM 53.8922 -4.1002 289° West  Level Estimated
06:54PM 53.9110 -4.1920 289° West  Level Estimated
06:55PM 53.9298 -4.2838 289° West  Level Estimated
06:56PM 53.9485 -4.3757 289° West  Level Estimated
06:57PM 53.9671 -4.4677 289° West  Level Estimated
06:58PM 53.9857 -4.5598 289° West  Level Estimated
06:59PM 54.0042 -4.6519 289° West  Level Estimated
07:00PM 54.0226 -4.7442 289° West  Level Estimated
07:01PM 54.0410 -4.8365 289° West  Level Estimated
07:02PM 54.0593 -4.9289 289° West  Level Estimated
07:03PM 54.0775 -5.0214 289° West  Level Estimated
07:04PM 54.0956 -5.1139 289° West  Level Estimated
07:05PM 54.1137 -5.2066 288° West  Level Estimated
07:06PM 54.1317 -5.2993 288° West  Level Estimated
07:07PM 54.1497 -5.3921 288° West  Level Estimated
07:08PM 54.1675 -5.4850 288° West  Level Estimated
07:09PM 54.1853 -5.5780 288° West  Level Estimated
07:10PM 54.2030 -5.6710 288° West  Level Estimated
07:11PM 54.2207 -5.7642 288° West  Level Estimated
07:12PM 54.2383 -5.8574 288° West  Level Estimated
07:13PM 54.2558 -5.9507 288° West  Level Estimated
07:14PM 54.2732 -6.0440 288° West  Level Estimated
07:15PM 54.2906 -6.1375 288° West  Level Estimated
07:16PM 54.3078 -6.2310 288° West  Level Estimated
07:17PM 54.3251 -6.3246 288° West  Level Estimated
07:18PM 54.3422 -6.4183 287° West  Level Estimated
07:19PM 54.3593 -6.5120 287° West  Level Estimated
07:20PM 54.3763 -6.6059 287° West  Level Estimated
07:21PM 54.3932 -6.6998 287° West  Level Estimated
07:22PM 54.4100 -6.7938 287° West  Level Estimated
07:23PM 54.4268 -6.8878 287° West  Level Estimated
07:24PM 54.4435 -6.9820 287° West  Level Estimated
07:25PM 54.4602 -7.0762 287° West  Level Estimated
07:26PM 54.4767 -7.1705 287° West  Level Estimated
07:27PM 54.4932 -7.2649 287° West  Level Estimated
07:28PM 54.5096 -7.3593 287° West  Level Estimated
07:29PM 54.5260 -7.4538 287° West  Level Estimated
07:30PM 54.5422 -7.5484 287° West  Level Estimated
07:31PM 54.5584 -7.6431 286° West  Level Estimated
07:32PM 54.5745 -7.7379 286° West  Level Estimated
07:33PM 54.5906 -7.8327 286° West  Level Estimated
07:34PM 54.6065 -7.9276 286° West  Level Estimated
07:35PM 54.6224 -8.0226 286° West  Level Estimated
07:36PM 54.6383 -8.1176 286° West  Level Estimated
07:37PM 54.6540 -8.2127 286° West  Level Estimated
07:38PM 54.6697 -8.3079 286° West  Level Estimated
07:39PM 54.6853 -8.4032 286° West  Level Estimated
07:40PM 54.7008 -8.4985 286° West  Level Estimated
07:41PM 54.7163 -8.5940 286° West  Level Estimated
07:42PM 54.7316 -8.6894 286° West  Level Estimated
07:43PM 54.7469 -8.7850 286° West  Level Estimated
07:44PM 54.7621 -8.8806 285° West  Level Estimated
07:45PM 54.7773 -8.9763 285° West  Level Estimated
07:46PM 54.7924 -9.0721 285° West  Level Estimated
07:47PM 54.8074 -9.1680 285° West  Level Estimated
07:48PM 54.8223 -9.2639 285° West  Level Estimated
07:49PM 54.8371 -9.3599 285° West  Level Estimated
07:50PM 54.8519 -9.4559 285° West  Level Estimated
07:51PM 54.8666 -9.5521 285° West  Level Estimated
07:52PM 54.8812 -9.6483 285° West  Level Estimated
07:53PM 54.8957 -9.7445 285° West  Level Estimated
07:54PM 54.9102 -9.8409 285° West  Level Estimated
07:55PM 54.9246 -9.9373 285° West  Level Estimated
07:56PM 54.9389 -10.0338 285° West  Level Estimated
07:57PM 54.9531 -10.1303 284° West  Level Estimated
07:58PM 54.9673 -10.2269 284° West  Level Estimated
07:59PM 54.9814 -10.3236 284° West  Level Estimated
08:00PM 54.9954 -10.4203 284° West  Level Estimated
08:01PM 55.0093 -10.5172 284° West  Level Estimated
08:02PM 55.0232 -10.6140 284° West  Level Estimated
08:03PM 55.0369 -10.7110 284° West  Level Estimated
08:04PM 55.0506 -10.8080 284° West  Level Estimated
08:05PM 55.0643 -10.9051 284° West  Level Estimated
08:06PM 55.0778 -11.0022 284° West  Level Estimated
08:07PM 55.0913 -11.0995 284° West  Level Estimated
08:08PM 55.1047 -11.1967 284° West  Level Estimated
08:09PM 55.1180 -11.2941 283° West  Level Estimated
08:10PM 55.1312 -11.3915 283° West  Level Estimated
08:11PM 55.1444 -11.4889 283° West  Level Estimated
08:12PM 55.1574 -11.5865 283° West  Level Estimated
08:13PM 55.1704 -11.6841 283° West  Level Estimated
08:14PM 55.1834 -11.7817 283° West  Level Estimated
08:15PM 55.1962 -11.8795 283° West  Level Estimated
08:16PM 55.2090 -11.9773 283° West  Level Estimated
08:17PM 55.2217 -12.0751 283° West  Level Estimated
08:18PM 55.2343 -12.1730 283° West  Level Estimated
08:19PM 55.2468 -12.2710 283° West  Level Estimated
08:20PM 55.2593 -12.3691 283° West  Level Estimated
08:21PM 55.2716 -12.4671 283° West  Level Estimated
08:22PM 55.2839 -12.5653 282° West  Level Estimated
08:23PM 55.2961 -12.6635 282° West  Level Estimated
08:24PM 55.3083 -12.7618 282° West  Level Estimated
08:25PM 55.3203 -12.8602 282° West  Level Estimated
08:26PM 55.3323 -12.9586 282° West  Level Estimated
08:27PM 55.3442 -13.0570 282° West  Level Estimated
08:28PM 55.3560 -13.1555 282° West  Level Estimated
08:29PM 55.3678 -13.2541 282° West  Level Estimated
08:30PM 55.3794 -13.3527 282° West  Level Estimated
08:31PM 55.3910 -13.4514 282° West  Level Estimated
08:32PM 55.4025 -13.5502 282° West  Level Estimated
08:33PM 55.4139 -13.6490 282° West  Level Estimated
08:34PM 55.4253 -13.7479 281° West  Level Estimated
08:35PM 55.4365 -13.8468 281° West  Level Estimated
08:36PM 55.4477 -13.9458 281° West  Level Estimated
08:37PM 55.4588 -14.0448 281° West  Level Estimated
08:38PM 55.4698 -14.1439 281° West  Level Estimated
08:39PM 55.4808 -14.2430 281° West  Level Estimated
08:40PM 55.4916 -14.3422 281° West  Level Estimated
08:41PM 55.5024 -14.4415 281° West  Level Estimated
08:42PM 55.5131 -14.5408 281° West  Level Estimated
08:43PM 55.5237 -14.6402 281° West  Level Estimated
08:44PM 55.5343 -14.7396 281° West  Level Estimated
08:45PM 55.5447 -14.8391 281° West  Level Estimated
08:46PM 55.5551 -14.9386 280° West  Level Estimated
08:47PM 55.5654 -15.0382 280° West  Level Estimated
08:48PM 55.5756 -15.1378 280° West  Level Estimated
08:49PM 55.5858 -15.2375 280° West  Level Estimated
08:50PM 55.5958 -15.3372 280° West  Level Estimated
08:51PM 55.6058 -15.4370 280° West  Level Estimated
08:52PM 55.6157 -15.5368 280° West  Level Estimated
08:53PM 55.6255 -15.6367 280° West  Level Estimated
08:54PM 55.6353 -15.7366 280° West  Level Estimated
08:55PM 55.6449 -15.8366 280° West  Level Estimated
08:56PM 55.6545 -15.9366 280° West  Level Estimated
08:57PM 55.6640 -16.0367 280° West  Level Estimated
08:58PM 55.6734 -16.1368 280° West  Level Estimated
08:59PM 55.6827 -16.2370 279° West  Level Estimated
09:00PM 55.6920 -16.3372 279° West  Level Estimated
09:01PM 55.7011 -16.4375 279° West  Level Estimated
09:02PM 55.7102 -16.5378 279° West  Level Estimated
09:03PM 55.7192 -16.6382 279° West  Level Estimated
09:04PM 55.7281 -16.7386 279° West  Level Estimated
09:05PM 55.7370 -16.8391 279° West  Level Estimated
09:06PM 55.7457 -16.9396 279° West  Level Estimated
09:07PM 55.7544 -17.0401 279° West  Level Estimated
09:08PM 55.7630 -17.1407 279° West  Level Estimated
09:09PM 55.7715 -17.2413 279° West  Level Estimated
09:10PM 55.7799 -17.3420 279° West  Level Estimated
09:11PM 55.7882 -17.4427 278° West  Level Estimated
09:12PM 55.7965 -17.5435 278° West  Level Estimated
09:13PM 55.8047 -17.6443 278° West  Level Estimated
09:14PM 55.8128 -17.7451 278° West  Level Estimated
09:15PM 55.8208 -17.8460 278° West  Level Estimated
09:16PM 55.8287 -17.9470 278° West  Level Estimated
09:17PM 55.8366 -18.0479 278° West  Level Estimated
09:18PM 55.8443 -18.1489 278° West  Level Estimated
09:19PM 55.8520 -18.2500 278° West  Level Estimated
09:20PM 55.8596 -18.3511 278° West  Level Estimated
09:21PM 55.8671 -18.4522 278° West  Level Estimated
09:22PM 55.8746 -18.5534 278° West  Level Estimated
09:23PM 55.8819 -18.6546 277° West  Level Estimated
09:24PM 55.8892 -18.7558 277° West  Level Estimated
09:25PM 55.8964 -18.8571 277° West  Level Estimated
09:26PM 55.9035 -18.9585 277° West  Level Estimated
09:27PM 55.9105 -19.0598 277° West  Level Estimated
09:28PM 55.9174 -19.1612 277° West  Level Estimated
09:29PM 55.9243 -19.2626 277° West  Level Estimated
09:30PM 55.9311 -19.3641 277° West  Level Estimated
09:31PM 55.9378 -19.4656 277° West  Level Estimated
09:32PM 55.9444 -19.5672 277° West  Level Estimated
09:33PM 55.9509 -19.6687 277° West  Level Estimated
09:34PM 55.9573 -19.7703 276° West  Level Estimated
09:35PM 55.9637 -19.8720 276° West  Level Estimated
09:36PM 55.9699 -19.9736 276° West  Level Estimated
09:37PM 55.9761 -20.0753 276° West  Level Estimated
09:38PM 55.9822 -20.1771 276° West  Level Estimated
09:39PM 55.9882 -20.2789 276° West  Level Estimated
09:40PM 55.9942 -20.3807 276° West  Level Estimated
09:41PM 56.0000 -20.4825 276° West  Level Estimated
09:42PM 56.0058 -20.5844 276° West  Level Estimated
09:43PM 56.0115 -20.6862 276° West  Level Estimated
09:44PM 56.0171 -20.7882 276° West  Level Estimated
09:45PM 56.0226 -20.8901 276° West  Level Estimated
09:46PM 56.0280 -20.9921 275° West  Level Estimated
09:47PM 56.0334 -21.0941 275° West  Level Estimated
09:48PM 56.0386 -21.1961 275° West  Level Estimated
09:49PM 56.0438 -21.2982 275° West  Level Estimated
09:50PM 56.0489 -21.4003 275° West  Level Estimated
09:51PM 56.0539 -21.5024 275° West  Level Estimated
09:52PM 56.0588 -21.6046 275° West  Level Estimated
09:53PM 56.0636 -21.7067 275° West  Level Estimated
09:54PM 56.0684 -21.8089 275° West  Level Estimated
09:55PM 56.0731 -21.9112 275° West  Level Estimated
09:56PM 56.0777 -22.0134 275° West  Level Estimated
09:57PM 56.0822 -22.1157 275° West  Level Estimated
09:58PM 56.0866 -22.2180 274° West  Level Estimated
09:59PM 56.0909 -22.3203 274° West  Level Estimated
10:00PM 56.0952 -22.4226 274° West  Level Estimated
10:01PM 56.0993 -22.5250 274° West  Level Estimated
10:02PM 56.1034 -22.6274 274° West  Level Estimated
10:03PM 56.1074 -22.7298 274° West  Level Estimated
10:04PM 56.1113 -22.8322 274° West  Level Estimated
10:05PM 56.1151 -22.9347 274° West  Level Estimated
10:06PM 56.1189 -23.0371 274° West  Level Estimated
10:07PM 56.1225 -23.1396 274° West  Level Estimated
10:08PM 56.1261 -23.2421 274° West  Level Estimated
10:09PM 56.1296 -23.3447 274° West  Level Estimated
10:10PM 56.1330 -23.4472 273° West  Level Estimated
10:11PM 56.1363 -23.5498 273° West  Level Estimated
10:12PM 56.1395 -23.6523 273° West  Level Estimated
10:13PM 56.1426 -23.7549 273° West  Level Estimated
10:14PM 56.1457 -23.8575 273° West  Level Estimated
10:15PM 56.1487 -23.9602 273° West  Level Estimated
10:16PM 56.1516 -24.0628 273° West  Level Estimated
10:17PM 56.1544 -24.1655 273° West  Level Estimated
10:18PM 56.1571 -24.2682 273° West  Level Estimated
10:19PM 56.1597 -24.3708 273° West  Level Estimated
10:20PM 56.1623 -24.4735 273° West  Level Estimated
10:21PM 56.1647 -24.5763 273° West  Level Estimated
10:22PM 56.1671 -24.6790 272° West  Level Estimated
10:23PM 56.1694 -24.7817 272° West  Level Estimated
10:24PM 56.1716 -24.8845 272° West  Level Estimated
10:25PM 56.1737 -24.9872 272° West  Level Estimated
10:26PM 56.1758 -25.0900 272° West  Level Estimated
10:27PM 56.1777 -25.1928 272° West  Level Estimated
10:28PM 56.1796 -25.2956 272° West  Level Estimated
10:29PM 56.1814 -25.3984 272° West  Level Estimated
10:30PM 56.1831 -25.5012 272° West  Level Estimated
10:31PM 56.1847 -25.6041 272° West  Level Estimated
10:32PM 56.1862 -25.7069 272° West  Level Estimated
10:33PM 56.1876 -25.8097 271° West  Level Estimated
10:34PM 56.1890 -25.9126 271° West  Level Estimated
10:35PM 56.1903 -26.0155 271° West  Level Estimated
10:36PM 56.1914 -26.1183 271° West  Level Estimated
10:37PM 56.1926 -26.2212 271° West  Level Estimated
10:38PM 56.1936 -26.3241 271° West  Level Estimated
10:39PM 56.1945 -26.4269 271° West  Level Estimated
10:40PM 56.1953 -26.5298 271° West  Level Estimated
10:41PM 56.1961 -26.6327 271° West  Level Estimated
10:42PM 56.1968 -26.7356 271° West  Level Estimated
10:43PM 56.1973 -26.8385 271° West  Level Estimated
10:44PM 56.1978 -26.9414 271° West  Level Estimated
10:45PM 56.1983 -27.0443 270° West  Level Estimated
10:46PM 56.1986 -27.1472 270° West  Level Estimated
10:47PM 56.1988 -27.2501 270° West  Level Estimated
10:48PM 56.1990 -27.3530 270° West  Level Estimated
10:49PM 56.1991 -27.4559 270° West  Level Estimated
10:50PM 56.1991 -27.5588 270° West  Level Estimated
10:51PM 56.1990 -27.6617 270° West  Level Estimated
10:52PM 56.1988 -27.7647 270° West  Level Estimated
10:53PM 56.1985 -27.8675 270° West  Level Estimated
10:54PM 56.1982 -27.9704 270° West  Level Estimated
10:55PM 56.1977 -28.0734 270° West  Level Estimated
10:56PM 56.1972 -28.1763 270° West  Level Estimated
10:57PM 56.1966 -28.2792 269° West  Level Estimated
10:58PM 56.1959 -28.3820 269° West  Level Estimated
10:59PM 56.1951 -28.4849 269° West  Level Estimated
11:00PM 56.1943 -28.5878 269° West  Level Estimated
11:01PM 56.1933 -28.6907 269° West  Level Estimated
11:02PM 56.1923 -28.7936 269° West  Level Estimated
11:03PM 56.1912 -28.8964 269° West  Level Estimated
11:04PM 56.1899 -28.9993 269° West  Level Estimated
11:05PM 56.1886 -29.1021 269° West  Level Estimated
11:06PM 56.1873 -29.2050 269° West  Level Estimated
11:07PM 56.1858 -29.3078 269° West  Level Estimated
11:08PM 56.1843 -29.4107 268° West  Level Estimated
11:09PM 56.1826 -29.5135 268° West  Level Estimated
11:10PM 56.1809 -29.6163 268° West  Level Estimated
11:11PM 56.1791 -29.7191 268° West  Level Estimated
11:12PM 56.1772 -29.8219 268° West  Level Estimated
11:13PM 56.1753 -29.9247 268° West  Level Estimated
11:14PM 56.1732 -30.0274 268° West  Level Estimated
11:15PM 56.1710 -30.1302 268° West  Level Estimated
11:16PM 56.1688 -30.2329 268° West  Level Estimated
11:17PM 56.1665 -30.3357 268° West  Level Estimated
11:18PM 56.1641 -30.4384 268° West  Level Estimated
11:19PM 56.1616 -30.5411 268° West  Level Estimated
11:20PM 56.1590 -30.6438 267° West  Level Estimated
11:21PM 56.1564 -30.7465 267° West  Level Estimated
11:22PM 56.1536 -30.8492 267° West  Level Estimated
11:23PM 56.1508 -30.9518 267° West  Level Estimated
11:24PM 56.1479 -31.0545 267° West  Level Estimated
11:25PM 56.1449 -31.1571 267° West  Level Estimated
11:26PM 56.1418 -31.2597 267° West  Level Estimated
11:27PM 56.1386 -31.3623 267° West  Level Estimated
11:28PM 56.1354 -31.4649 267° West  Level Estimated
11:29PM 56.1320 -31.5674 267° West  Level Estimated
11:30PM 56.1286 -31.6700 267° West  Level Estimated
11:31PM 56.1251 -31.7725 267° West  Level Estimated
11:32PM 56.1215 -31.8750 266° West  Level Estimated
11:33PM 56.1179 -31.9775 266° West  Level Estimated
11:34PM 56.1141 -32.0799 266° West  Level Estimated
11:35PM 56.1102 -32.1824 266° West  Level Estimated
11:36PM 56.1063 -32.2848 266° West  Level Estimated
11:37PM 56.1023 -32.3872 266° West  Level Estimated
11:38PM 56.0982 -32.4896 266° West  Level Estimated
11:39PM 56.0940 -32.5919 266° West  Level Estimated
11:40PM 56.0897 -32.6943 266° West  Level Estimated
11:41PM 56.0854 -32.7966 266° West  Level Estimated
11:42PM 56.0810 -32.8989 266° West  Level Estimated
11:43PM 56.0764 -33.0011 266° West  Level Estimated
11:44PM 56.0718 -33.1034 265° West  Level Estimated
11:45PM 56.0671 -33.2056 265° West  Level Estimated
11:46PM 56.0624 -33.3078 265° West  Level Estimated
11:47PM 56.0575 -33.4099 265° West  Level Estimated
11:48PM 56.0525 -33.5121 265° West  Level Estimated
11:49PM 56.0475 -33.6142 265° West  Level Estimated
11:50PM 56.0424 -33.7163 265° West  Level Estimated
11:51PM 56.0372 -33.8183 265° West  Level Estimated
11:52PM 56.0319 -33.9204 265° West  Level Estimated
11:53PM 56.0266 -34.0224 265° West  Level Estimated
11:54PM 56.0211 -34.1243 265° West  Level Estimated
11:55PM 56.0156 -34.2263 264° West  Level Estimated
11:56PM 56.0099 -34.3282 264° West  Level Estimated
11:57PM 56.0042 -34.4301 264° West  Level Estimated
11:58PM 55.9985 -34.5319 264° West  Level Estimated
11:59PM 55.9926 -34.6338 264° West  Level Estimated
12:00AM 55.9866 -34.7355 264° West  Level Estimated
12:01AM 55.9806 -34.8373 264° West  Level Estimated
12:02AM 55.9745 -34.9390 264° West  Level Estimated
12:03AM 55.9683 -35.0407 264° West  Level Estimated
12:04AM 55.9620 -35.1424 264° West  Level Estimated
12:05AM 55.9556 -35.2440 264° West  Level Estimated
12:06AM 55.9492 -35.3456 264° West  Level Estimated
12:07AM 55.9426 -35.4472 263° West  Level Estimated
12:08AM 55.9360 -35.5487 263° West  Level Estimated
12:09AM 55.9293 -35.6502 263° West  Level Estimated
12:10AM 55.9225 -35.7517 263° West  Level Estimated
12:11AM 55.9156 -35.8531 263° West  Level Estimated
12:12AM 55.9087 -35.9545 263° West  Level Estimated
12:13AM 55.9016 -36.0558 263° West  Level Estimated
12:14AM 55.8945 -36.1571 263° West  Level Estimated
12:15AM 55.8873 -36.2584 263° West  Level Estimated
12:16AM 55.8800 -36.3597 263° West  Level Estimated
12:17AM 55.8726 -36.4609 263° West  Level Estimated
12:18AM 55.8652 -36.5620 263° West  Level Estimated
12:19AM 55.8576 -36.6631 262° West  Level Estimated
12:20AM 55.8500 -36.7642 262° West  Level Estimated
12:21AM 55.8423 -36.8653 262° West  Level Estimated
12:22AM 55.8345 -36.9663 262° West  Level Estimated
12:23AM 55.8266 -37.0672 262° West  Level Estimated
12:24AM 55.8187 -37.1681 262° West  Level Estimated
12:25AM 55.8107 -37.2690 262° West  Level Estimated
12:26AM 55.8025 -37.3699 262° West  Level Estimated
12:27AM 55.7943 -37.4707 262° West  Level Estimated
12:28AM 55.7861 -37.5714 262° West  Level Estimated
12:29AM 55.7777 -37.6721 262° West  Level Estimated
12:30AM 55.7692 -37.7728 262° West  Level Estimated
12:31AM 55.7607 -37.8734 261° West  Level Estimated
12:32AM 55.7521 -37.9740 261° West  Level Estimated
12:33AM 55.7434 -38.0745 261° West  Level Estimated
12:34AM 55.7346 -38.1750 261° West  Level Estimated
12:35AM 55.7258 -38.2755 261° West  Level Estimated
12:36AM 55.7168 -38.3759 261° West  Level Estimated
12:37AM 55.7078 -38.4762 261° West  Level Estimated
12:38AM 55.6987 -38.5765 261° West  Level Estimated
12:39AM 55.6895 -38.6768 261° West  Level Estimated
12:40AM 55.6802 -38.7770 261° West  Level Estimated
12:41AM 55.6709 -38.8771 261° West  Level Estimated
12:42AM 55.6615 -38.9772 261° West  Level Estimated
12:43AM 55.6520 -39.0773 260° West  Level Estimated
12:44AM 55.6424 -39.1773 260° West  Level Estimated
12:45AM 55.6327 -39.2773 260° West  Level Estimated
12:46AM 55.6229 -39.3772 260° West  Level Estimated
12:47AM 55.6131 -39.4771 260° West  Level Estimated
12:48AM 55.6032 -39.5769 260° West  Level Estimated
12:49AM 55.5932 -39.6767 260° West  Level Estimated
12:50AM 55.5831 -39.7764 260° West  Level Estimated
12:51AM 55.5729 -39.8761 260° West  Level Estimated
12:52AM 55.5627 -39.9757 260° West  Level Estimated
12:53AM 55.5524 -40.0752 260° West  Level Estimated
12:54AM 55.5420 -40.1748 260° West  Level Estimated
12:55AM 55.5315 -40.2742 259° West  Level Estimated
12:56AM 55.5209 -40.3736 259° West  Level Estimated
12:57AM 55.5103 -40.4730 259° West  Level Estimated
12:58AM 55.4996 -40.5723 259° West  Level Estimated
12:59AM 55.4888 -40.6715 259° West  Level Estimated
01:00AM 55.4779 -40.7707 259° West  Level Estimated
01:01AM 55.4669 -40.8698 259° West  Level Estimated
01:02AM 55.4559 -40.9689 259° West  Level Estimated
01:03AM 55.4448 -41.0679 259° West  Level Estimated
01:04AM 55.4336 -41.1669 259° West  Level Estimated
01:05AM 55.4223 -41.2658 259° West  Level Estimated
01:06AM 55.4109 -41.3646 259° West  Level Estimated
01:07AM 55.3995 -41.4634 259° West  Level Estimated
01:08AM 55.3880 -41.5622 258° West  Level Estimated
01:09AM 55.3764 -41.6609 258° West  Level Estimated
01:10AM 55.3647 -41.7595 258° West  Level Estimated
01:11AM 55.3529 -41.8580 258° West  Level Estimated
01:12AM 55.3411 -41.9565 258° West  Level Estimated
01:13AM 55.3292 -42.0550 258° West  Level Estimated
01:14AM 55.3172 -42.1534 258° West  Level Estimated
01:15AM 55.3051 -42.2517 258° West  Level Estimated
01:16AM 55.2929 -42.3500 258° West  Level Estimated
01:17AM 55.2807 -42.4482 258° West  Level Estimated
01:18AM 55.2684 -42.5463 258° West  Level Estimated
01:19AM 55.2560 -42.6444 258° West  Level Estimated
01:20AM 55.2435 -42.7424 257° West  Level Estimated
01:21AM 55.2309 -42.8404 257° West  Level Estimated
01:22AM 55.2183 -42.9383 257° West  Level Estimated
01:23AM 55.2056 -43.0361 257° West  Level Estimated
01:24AM 55.1928 -43.1339 257° West  Level Estimated
01:25AM 55.1800 -43.2316 257° West  Level Estimated
01:26AM 55.1670 -43.3293 257° West  Level Estimated
01:27AM 55.1540 -43.4268 257° West  Level Estimated
01:28AM 55.1409 -43.5243 257° West  Level Estimated
01:29AM 55.1277 -43.6218 257° West  Level Estimated
01:30AM 55.1145 -43.7192 257° West  Level Estimated
01:31AM 55.1011 -43.8165 257° West  Level Estimated
01:32AM 55.0877 -43.9138 256° West  Level Estimated
01:33AM 55.0742 -44.0110 256° West  Level Estimated
01:34AM 55.0607 -44.1081 256° West  Level Estimated
01:35AM 55.0470 -44.2052 256° West  Level Estimated
01:36AM 55.0333 -44.3022 256° West  Level Estimated
01:37AM 55.0195 -44.3991 256° West  Level Estimated
01:38AM 55.0057 -44.4960 256° West  Level Estimated
01:39AM 54.9917 -44.5928 256° West  Level Estimated
01:40AM 54.9777 -44.6895 256° West  Level Estimated
01:41AM 54.9636 -44.7862 256° West  Level Estimated
01:42AM 54.9494 -44.8828 256° West  Level Estimated
01:43AM 54.9351 -44.9793 256° West  Level Estimated
01:44AM 54.9208 -45.0757 256° West  Level Estimated
01:45AM 54.9064 -45.1721 255° West  Level Estimated
01:46AM 54.8919 -45.2685 255° West  Level Estimated
01:47AM 54.8774 -45.3647 255° West  Level Estimated
01:48AM 54.8627 -45.4609 255° West  Level Estimated
01:49AM 54.8480 -45.5570 255° West  Level Estimated
01:50AM 54.8332 -45.6530 255° West  Level Estimated
01:51AM 54.8184 -45.7490 255° West  Level Estimated
01:52AM 54.8034 -45.8449 255° West  Level Estimated
01:53AM 54.7884 -45.9407 255° West  Level Estimated
01:54AM 54.7733 -46.0365 255° West  Level Estimated
01:55AM 54.7581 -46.1322 255° West  Level Estimated
01:56AM 54.7429 -46.2278 255° West  Level Estimated
01:57AM 54.7276 -46.3233 255° West  Level Estimated
01:58AM 54.7122 -46.4188 254° West  Level Estimated
01:59AM 54.6967 -46.5142 254° West  Level Estimated
02:00AM 54.6812 -46.6095 254° West  Level Estimated
02:01AM 54.6656 -46.7048 254° West  Level Estimated
02:02AM 54.6499 -46.7999 254° West  Level Estimated
02:03AM 54.6341 -46.8950 254° West  Level Estimated
02:04AM 54.6183 -46.9901 254° West  Level Estimated
02:05AM 54.6024 -47.0850 254° West  Level Estimated
02:06AM 54.5864 -47.1799 254° West  Level Estimated
02:07AM 54.5703 -47.2747 254° West  Level Estimated
02:08AM 54.5542 -47.3694 254° West  Level Estimated
02:09AM 54.5380 -47.4641 254° West  Level Estimated
02:10AM 54.5217 -47.5587 254° West  Level Estimated
02:11AM 54.5053 -47.6532 253° West  Level Estimated
02:12AM 54.4889 -47.7476 253° West  Level Estimated
02:13AM 54.4724 -47.8420 253° West  Level Estimated
02:14AM 54.4558 -47.9362 253° West  Level Estimated
02:15AM 54.4392 -48.0304 253° West  Level Estimated
02:16AM 54.4225 -48.1246 253° West  Level Estimated
02:17AM 54.4057 -48.2186 253° West  Level Estimated
02:18AM 54.3888 -48.3126 253° West  Level Estimated
02:19AM 54.3718 -48.4065 253° West  Level Estimated
02:20AM 54.3548 -48.5003 253° West  Level Estimated
02:21AM 54.3377 -48.5940 253° West  Level Estimated
02:22AM 54.3206 -48.6877 253° West  Level Estimated
02:23AM 54.3033 -48.7813 253° West  Level Estimated
02:24AM 54.2860 -48.8748 252° West  Level Estimated
02:25AM 54.2687 -48.9682 252° West  Level Estimated
02:26AM 54.2512 -49.0615 252° West  Level Estimated
02:27AM 54.2337 -49.1548 252° West  Level Estimated
02:28AM 54.2161 -49.2480 252° West  Level Estimated
02:29AM 54.1984 -49.3411 252° West  Level Estimated
02:30AM 54.1807 -49.4341 252° West  Level Estimated
02:31AM 54.1629 -49.5271 252° West  Level Estimated
02:32AM 54.1450 -49.6199 252° West  Level Estimated
02:33AM 54.1270 -49.7127 252° West  Level Estimated
02:34AM 54.1090 -49.8055 252° West  Level Estimated
02:35AM 54.0909 -49.8981 252° West  Level Estimated
02:36AM 54.0727 -49.9906 252° West  Level Estimated
02:37AM 54.0545 -50.0831 251° West  Level Estimated
02:38AM 54.0362 -50.1754 251° West  Level Estimated
02:39AM 54.0178 -50.2677 251° West  Level Estimated
02:40AM 53.9994 -50.3600 251° West  Level Estimated
02:41AM 53.9808 -50.4521 251° West  Level Estimated
02:42AM 53.9622 -50.5442 251° West  Level Estimated
02:43AM 53.9436 -50.6361 251° West  Level Estimated
02:44AM 53.9249 -50.7280 251° West  Level Estimated
02:45AM 53.9061 -50.8198 251° West  Level Estimated
02:46AM 53.8872 -50.9115 251° West  Level Estimated
02:47AM 53.8683 -51.0032 251° West  Level Estimated
02:48AM 53.8492 -51.0947 251° West  Level Estimated
02:49AM 53.8302 -51.1862 251° West  Level Estimated
02:50AM 53.8110 -51.2776 250° West  Level Estimated
02:51AM 53.7918 -51.3689 250° West  Level Estimated
02:52AM 53.7725 -51.4602 250° West  Level Estimated
02:53AM 53.7531 -51.5513 250° West  Level Estimated
02:54AM 53.7337 -51.6423 250° West  Level Estimated
02:55AM 53.7142 -51.7333 250° West  Level Estimated
02:56AM 53.6946 -51.8242 250° West  Level Estimated
02:57AM 53.6750 -51.9150 250° West  Level Estimated
02:58AM 53.6553 -52.0057 250° West  Level Estimated
02:59AM 53.6356 -52.0964 250° West  Level Estimated
03:00AM 53.6157 -52.1869 250° West  Level Estimated
03:01AM 53.5958 -52.2774 250° West  Level Estimated
03:02AM 53.5758 -52.3677 250° West  Level Estimated
03:03AM 53.5558 -52.4580 250° West  Level Estimated
03:04AM 53.5357 -52.5482 249° West  Level Estimated
03:05AM 53.5155 -52.6384 249° West  Level Estimated
03:06AM 53.4952 -52.7284 249° West  Level Estimated
03:07AM 53.4749 -52.8184 249° West  Level Estimated
03:08AM 53.4546 -52.9082 249° West  Level Estimated
03:09AM 53.4341 -52.9980 249° West  Level Estimated
03:10AM 53.4136 -53.0877 249° West  Level Estimated
03:11AM 53.3930 -53.1773 249° West  Level Estimated
03:12AM 53.3723 -53.2668 249° West  Level Estimated
03:13AM 53.3516 -53.3562 249° West  Level Estimated
03:14AM 53.3308 -53.4456 249° West  Level Estimated
03:15AM 53.3100 -53.5348 249° West  Level Estimated
03:16AM 53.2891 -53.6240 249° West  Level Estimated
03:17AM 53.2681 -53.7131 249° West  Level Estimated
03:18AM 53.2471 -53.8021 248° West  Level Estimated
03:19AM 53.2259 -53.8910 248° West  Level Estimated
03:20AM 53.2048 -53.9798 248° West  Level Estimated
03:21AM 53.1835 -54.0685 248° West  Level Estimated
03:22AM 53.1622 -54.1572 248° West  Level Estimated
03:23AM 53.1408 -54.2457 248° West  Level Estimated
03:24AM 53.1194 -54.3342 248° West  Level Estimated
03:25AM 53.0979 -54.4226 248° West  Level Estimated
03:26AM 53.0763 -54.5109 248° West  Level Estimated
03:27AM 53.0546 -54.5991 248° West  Level Estimated
03:28AM 53.0329 -54.6872 248° West  Level Estimated
03:29AM 53.0112 -54.7752 248° West  Level Estimated
03:30AM 52.9893 -54.8631 248° West  Level Estimated
03:31AM 52.9674 -54.9510 248° West  Level Estimated
03:32AM 52.9454 -55.0387 247° West  Level Estimated
03:33AM 52.9234 -55.1264 247° West  Level Estimated
03:34AM 52.9013 -55.2140 247° West  Level Estimated
03:35AM 52.8792 -55.3015 247° West  Level Estimated
03:36AM 52.8569 -55.3889 247° West  Level Estimated
03:37AM 52.8346 -55.4762 247° West  Level Estimated
03:38AM 52.8123 -55.5634 247° West  Level Estimated
03:39AM 52.7899 -55.6505 247° West  Level Estimated
03:40AM 52.7674 -55.7376 247° West  Level Estimated
03:41AM 52.7449 -55.8245 247° West  Level Estimated
03:42AM 52.7222 -55.9114 247° West  Level Estimated
03:43AM 52.6996 -55.9981 247° West  Level Estimated
03:44AM 52.6768 -56.0848 247° West  Level Estimated
03:45AM 52.6540 -56.1714 247° West  Level Estimated
03:46AM 52.6312 -56.2579 246° West  Level Estimated
03:47AM 52.6083 -56.3443 246° West  Level Estimated
03:48AM 52.5853 -56.4306 246° West  Level Estimated
03:49AM 52.5622 -56.5169 246° West  Level Estimated
03:50AM 52.5391 -56.6030 246° West  Level Estimated
03:51AM 52.5159 -56.6890 246° West  Level Estimated
03:52AM 52.4927 -56.7750 246° West  Level Estimated
03:53AM 52.4694 -56.8609 246° West  Level Estimated
03:54AM 52.4460 -56.9466 246° West  Level Estimated
03:55AM 52.4226 -57.0323 246° West  Level Estimated
03:56AM 52.3991 -57.1179 246° West  Level Estimated
03:57AM 52.3756 -57.2034 246° West  Level Estimated
03:58AM 52.3520 -57.2888 246° West  Level Estimated
03:59AM 52.3283 -57.3741 246° West  Level Estimated
04:00AM 52.3046 -57.4594 246° West  Level Estimated
04:01AM 52.2808 -57.5445 245° Southwest  Level Estimated
04:02AM 52.2569 -57.6295 245° Southwest  Level Estimated
04:03AM 52.2330 -57.7145 245° Southwest  Level Estimated
04:04AM 52.2091 -57.7993 245° Southwest  Level Estimated
04:05AM 52.1850 -57.8841 245° Southwest  Level Estimated
04:06AM 52.1609 -57.9688 245° Southwest  Level Estimated
04:07AM 52.1368 -58.0534 245° Southwest  Level Estimated
04:08AM 52.1125 -58.1379 245° Southwest  Level Estimated
04:09AM 52.0883 -58.2223 245° Southwest  Level Estimated
04:10AM 52.0639 -58.3066 245° Southwest  Level Estimated
04:11AM 52.0395 -58.3908 245° Southwest  Level Estimated
04:12AM 52.0151 -58.4749 245° Southwest  Level Estimated
04:13AM 51.9905 -58.5589 245° Southwest  Level Estimated
04:14AM 51.9660 -58.6429 245° Southwest  Level Estimated
04:15AM 51.9413 -58.7267 245° Southwest  Level Estimated
04:16AM 51.9166 -58.8105 244° Southwest  Level Estimated
04:17AM 51.8919 -58.8941 244° Southwest  Level Estimated
04:18AM 51.8671 -58.9777 244° Southwest  Level Estimated
04:19AM 51.8422 -59.0612 244° Southwest  Level Estimated
04:20AM 51.8172 -59.1446 244° Southwest  Level Estimated
04:21AM 51.7923 -59.2279 244° Southwest  Level Estimated
04:22AM 51.7672 -59.3111 244° Southwest  Level Estimated
04:23AM 51.7421 -59.3942 244° Southwest  Level Estimated
04:24AM 51.7169 -59.4772 244° Southwest  Level Estimated
04:25AM 51.6917 -59.5601 244° Southwest  Level Estimated
04:26AM 51.6664 -59.6429 244° Southwest  Level Estimated
04:27AM 51.6411 -59.7257 244° Southwest  Level Estimated
04:28AM 51.6157 -59.8083 244° Southwest  Level Estimated
04:29AM 51.5902 -59.8909 244° Southwest  Level Estimated
04:30AM 51.5647 -59.9734 244° Southwest  Level Estimated
04:31AM 51.5391 -60.0557 243° Southwest  Level Estimated
04:32AM 51.5135 -60.1380 243° Southwest  Level Estimated
04:33AM 51.4878 -60.2202 243° Southwest  Level Estimated
04:34AM 51.4621 -60.3023 243° Southwest  Level Estimated
04:35AM 51.4363 -60.3843 243° Southwest  Level Estimated
04:36AM 51.4104 -60.4662 243° Southwest  Level Estimated
04:37AM 51.3845 -60.5480 243° Southwest  Level Estimated
04:38AM 51.3585 -60.6297 243° Southwest  Level Estimated
04:39AM 51.3325 -60.7113 243° Southwest  Level Estimated
04:40AM 51.3064 -60.7929 243° Southwest  Level Estimated
04:41AM 51.2802 -60.8743 243° Southwest  Level Estimated
04:42AM 51.2540 -60.9557 243° Southwest  Level Estimated
04:43AM 51.2278 -61.0369 243° Southwest  Level Estimated
04:44AM 51.2015 -61.1181 243° Southwest  Level Estimated
04:45AM 51.1751 -61.1992 243° Southwest  Level Estimated
04:46AM 51.1487 -61.2801 243° Southwest  Level Estimated
04:47AM 51.1222 -61.3610 242° Southwest  Level Estimated
04:48AM 51.0956 -61.4418 242° Southwest  Level Estimated
04:49AM 51.0690 -61.5225 242° Southwest  Level Estimated
04:50AM 51.0424 -61.6031 242° Southwest  Level Estimated
04:51AM 51.0157 -61.6836 242° Southwest  Level Estimated
04:52AM 50.9889 -61.7641 242° Southwest  Level Estimated
04:53AM 50.9621 -61.8444 242° Southwest  Level Estimated
04:54AM 50.9353 -61.9246 242° Southwest  Level Estimated
04:55AM 50.9083 -62.0048 242° Southwest  Level Estimated
04:56AM 50.8814 -62.0848 242° Southwest  Level Estimated
04:57AM 50.8543 -62.1648 242° Southwest  Level Estimated
04:58AM 50.8272 -62.2447 242° Southwest  Level Estimated
04:59AM 50.8001 -62.3244 242° Southwest  Level Estimated
05:00AM 50.7729 -62.4041 242° Southwest  Level Estimated
05:01AM 50.7457 -62.4837 242° Southwest  Level Estimated
05:02AM 50.7183 -62.5632 242° Southwest  Level Estimated
05:03AM 50.6910 -62.6426 241° Southwest  Level Estimated
05:04AM 50.6636 -62.7219 241° Southwest  Level Estimated
05:05AM 50.6361 -62.8011 241° Southwest  Level Estimated
05:06AM 50.6086 -62.8802 241° Southwest  Level Estimated
05:07AM 50.5810 -62.9593 241° Southwest  Level Estimated
05:08AM 50.5534 -63.0382 241° Southwest  Level Estimated
05:09AM 50.5257 -63.1171 241° Southwest  Level Estimated
05:10AM 50.4980 -63.1958 241° Southwest  Level Estimated
05:11AM 50.4702 -63.2745 241° Southwest  Level Estimated
05:12AM 50.4423 -63.3530 241° Southwest  Level Estimated
05:13AM 50.4145 -63.4315 241° Southwest  Level Estimated
05:14AM 50.3865 -63.5099 241° Southwest  Level Estimated
05:15AM 50.3585 -63.5882 241° Southwest  Level Estimated
05:16AM 50.3304 -63.6664 241° Southwest  Level Estimated
05:17AM 50.3023 -63.7445 241° Southwest  Level Estimated
05:18AM 50.2742 -63.8225 241° Southwest  Level Estimated
05:19AM 50.2460 -63.9004 241° Southwest  Level Estimated
05:20AM 50.2177 -63.9782 240° Southwest  Level Estimated
05:21AM 50.1894 -64.0560 240° Southwest  Level Estimated
05:22AM 50.1610 -64.1336 240° Southwest  Level Estimated
05:23AM 50.1326 -64.2112 240° Southwest  Level Estimated
05:24AM 50.1042 -64.2887 240° Southwest  Level Estimated
05:25AM 50.0756 -64.3660 240° Southwest  Level Estimated
05:26AM 50.0471 -64.4433 240° Southwest  Level Estimated
05:27AM 50.0185 -64.5205 240° Southwest  Level Estimated
05:28AM 49.9898 -64.5976 240° Southwest  Level Estimated
05:29AM 49.9611 -64.6746 240° Southwest  Level Estimated
05:30AM 49.9323 -64.7515 240° Southwest  Level Estimated
05:31AM 49.9035 -64.8283 240° Southwest  Level Estimated
05:32AM 49.8746 -64.9050 240° Southwest  Level Estimated
05:33AM 49.8456 -64.9817 240° Southwest  Level Estimated
05:34AM 49.8167 -65.0582 240° Southwest  Level Estimated
05:35AM 49.7876 -65.1347 240° Southwest  Level Estimated
05:36AM 49.7586 -65.2110 240° Southwest  Level Estimated
05:37AM 49.7294 -65.2873 239° Southwest  Level Estimated
05:38AM 49.7002 -65.3635 239° Southwest  Level Estimated
05:39AM 49.6710 -65.4395 239° Southwest  Level Estimated
05:40AM 49.6417 -65.5155 239° Southwest  Level Estimated
05:41AM 49.6124 -65.5914 239° Southwest  Level Estimated
05:42AM 49.5830 -65.6672 239° Southwest  Level Estimated
05:43AM 49.5536 -65.7430 239° Southwest  Level Estimated
05:44AM 49.5241 -65.8186 239° Southwest  Level Estimated
05:45AM 49.4946 -65.8941 239° Southwest  Level Estimated
05:46AM 49.4650 -65.9696 239° Southwest  Level Estimated
05:47AM 49.4354 -66.0449 239° Southwest  Level Estimated
05:48AM 49.4057 -66.1202 239° Southwest  Level Estimated
05:49AM 49.3760 -66.1954 239° Southwest  Level Estimated
05:50AM 49.3462 -66.2704 239° Southwest  Level Estimated
05:51AM 49.3164 -66.3454 239° Southwest  Level Estimated
05:52AM 49.2866 -66.4203 239° Southwest  Level Estimated
05:53AM 49.2566 -66.4951 239° Southwest  Level Estimated
05:54AM 49.2267 -66.5698 238° Southwest  Level Estimated
05:55AM 49.1967 -66.6445 238° Southwest  Level Estimated
05:56AM 49.1666 -66.7190 238° Southwest  Level Estimated
05:57AM 49.1365 -66.7935 238° Southwest  Level Estimated
05:58AM 49.1064 -66.8678 238° Southwest  Level Estimated
05:59AM 49.0762 -66.9421 238° Southwest  Level Estimated
06:00AM 49.0459 -67.0163 238° Southwest  Level Estimated
06:01AM 49.0156 -67.0903 238° Southwest  Level Estimated
06:02AM 48.9853 -67.1643 238° Southwest  Level Estimated
06:03AM 48.9549 -67.2382 238° Southwest  Level Estimated
06:04AM 48.9244 -67.3120 238° Southwest  Level Estimated
06:05AM 48.8940 -67.3858 238° Southwest  Level Estimated
06:06AM 48.8634 -67.4594 238° Southwest  Level Estimated
06:07AM 48.8328 -67.5329 238° Southwest  Level Estimated
06:08AM 48.8022 -67.6064 238° Southwest  Level Estimated
06:09AM 48.7715 -67.6797 238° Southwest  Level Estimated
06:10AM 48.7408 -67.7530 238° Southwest  Level Estimated
06:11AM 48.7100 -67.8262 238° Southwest  Level Estimated
06:12AM 48.6792 -67.8993 237° Southwest  Level Estimated
06:13AM 48.6484 -67.9723 237° Southwest  Level Estimated
06:14AM 48.6175 -68.0452 237° Southwest  Level Estimated
06:15AM 48.5865 -68.1181 237° Southwest  Level Estimated
06:16AM 48.5555 -68.1908 237° Southwest  Level Estimated
06:17AM 48.5245 -68.2635 237° Southwest  Level Estimated
06:18AM 48.4934 -68.3360 237° Southwest  Level Estimated
06:19AM 48.4623 -68.4085 237° Southwest  Level Estimated
06:20AM 48.4311 -68.4809 237° Southwest  Level Estimated
06:21AM 48.3999 -68.5532 237° Southwest  Level Estimated
06:22AM 48.3686 -68.6254 237° Southwest  Level Estimated
06:23AM 48.3373 -68.6975 237° Southwest  Level Estimated
06:24AM 48.3059 -68.7695 237° Southwest  Level Estimated
06:25AM 48.2745 -68.8415 237° Southwest  Level Estimated
06:26AM 48.2431 -68.9133 237° Southwest  Level Estimated
06:27AM 48.2116 -68.9851 237° Southwest  Level Estimated
06:28AM 48.1800 -69.0567 237° Southwest  Level Estimated
06:29AM 48.1485 -69.1283 237° Southwest  Level Estimated
06:30AM 48.1168 -69.1998 236° Southwest  Level Estimated
06:31AM 48.0852 -69.2712 236° Southwest  Level Estimated
06:32AM 48.0535 -69.3426 236° Southwest  Level Estimated
06:33AM 48.0217 -69.4138 236° Southwest  Level Estimated
06:34AM 47.9899 -69.4849 236° Southwest  Level Estimated
06:35AM 47.9580 -69.5560 236° Southwest  Level Estimated
06:36AM 47.9262 -69.6270 236° Southwest  Level Estimated
06:37AM 47.8942 -69.6978 236° Southwest  Level Estimated
06:38AM 47.8622 -69.7686 236° Southwest  Level Estimated
06:39AM 47.8302 -69.8393 236° Southwest  Level Estimated
06:40AM 47.7981 -69.9100 236° Southwest  Level Estimated
06:41AM 47.7660 -69.9805 236° Southwest  Level Estimated
06:42AM 47.7339 -70.0509 236° Southwest  Level Estimated
06:43AM 47.7017 -70.1213 236° Southwest  Level Estimated
06:44AM 47.6694 -70.1916 236° Southwest  Level Estimated
06:45AM 47.6372 -70.2618 236° Southwest  Level Estimated
06:46AM 47.6048 -70.3319 236° Southwest  Level Estimated
06:47AM 47.5725 -70.4019 236° Southwest  Level Estimated
06:48AM 47.5401 -70.4718 236° Southwest  Level Estimated
06:49AM 47.5076 -70.5416 235° Southwest  Level Estimated
06:50AM 47.4751 -70.6114 235° Southwest  Level Estimated
06:51AM 47.4426 -70.6811 235° Southwest  Level Estimated
06:52AM 47.4100 -70.7506 235° Southwest  Level Estimated
06:53AM 47.3774 -70.8202 235° Southwest  Level Estimated
06:54AM 47.3447 -70.8896 235° Southwest  Level Estimated
06:55AM 47.3120 -70.9589 235° Southwest  Level Estimated
06:56AM 47.2793 -71.0281 235° Southwest  Level Estimated
06:57AM 47.2465 -71.0973 235° Southwest  Level Estimated
06:58AM 47.2136 -71.1663 235° Southwest  Level Estimated
06:59AM 47.1808 -71.2353 235° Southwest  Level Estimated
07:00AM 47.1479 -71.3042 235° Southwest  Level Estimated
07:01AM 47.1149 -71.3730 235° Southwest  Level Estimated
07:02AM 47.0819 -71.4417 235° Southwest  Level Estimated
07:03AM 47.0489 -71.5104 235° Southwest  Level Estimated
07:04AM 47.0158 -71.5789 235° Southwest  Level Estimated
07:05AM 46.9827 -71.6474 235° Southwest  Level Estimated
07:06AM 46.9495 -71.7158 235° Southwest  Level Estimated
07:07AM 46.9163 -71.7841 235° Southwest  Level Estimated
07:08AM 46.8831 -71.8523 235° Southwest  Level Estimated
07:09AM 46.8498 -71.9204 234° Southwest  Level Estimated
07:10AM 46.8165 -71.9885 234° Southwest  Level Estimated
07:11AM 46.7831 -72.0564 234° Southwest  Level Estimated
07:12AM 46.7497 -72.1243 234° Southwest  Level Estimated
07:13AM 46.7163 -72.1921 234° Southwest  Level Estimated
07:14AM 46.6828 -72.2598 234° Southwest  Level Estimated
07:15AM 46.6493 -72.3275 234° Southwest  Level Estimated
07:16AM 46.6157 -72.3950 234° Southwest  Level Estimated
07:17AM 46.5821 -72.4625 234° Southwest  Level Estimated
07:18AM 46.5485 -72.5298 234° Southwest  Level Estimated
07:19AM 46.5148 -72.5971 234° Southwest  Level Estimated
07:20AM 46.4811 -72.6643 234° Southwest  Level Estimated
07:21AM 46.4473 -72.7315 234° Southwest  Level Estimated
07:22AM 46.4135 -72.7985 234° Southwest  Level Estimated
07:23AM 46.3797 -72.8654 234° Southwest  Level Estimated
07:24AM 46.3458 -72.9323 234° Southwest  Level Estimated
07:25AM 46.3119 -72.9991 234° Southwest  Level Estimated
07:26AM 46.2780 -73.0658 234° Southwest  Level Estimated
07:27AM 46.2440 -73.1325 234° Southwest  Level Estimated
07:28AM 46.2099 -73.1990 234° Southwest  Level Estimated
07:29AM 46.1759 -73.2655 234° Southwest  Level Estimated
07:30AM 46.1418 -73.3318 233° Southwest  Level Estimated
07:31AM 46.1076 -73.3981 233° Southwest  Level Estimated
07:32AM 46.0734 -73.4644 233° Southwest  Level Estimated
07:33AM 46.0392 -73.5305 233° Southwest  Level Estimated
07:34AM 46.0050 -73.5965 233° Southwest  Level Estimated
07:35AM 45.9706 -73.6625 233° Southwest  Level Estimated
07:36AM 45.9363 -73.7284 233° Southwest  Level Estimated
07:37AM 45.9019 -73.7942 233° Southwest  Level Estimated
07:38AM 45.8675 -73.8599 233° Southwest  Level Estimated
07:39AM 45.8331 -73.9256 233° Southwest  Level Estimated
07:40AM 45.7986 -73.9911 233° Southwest  Level Estimated
07:41AM 45.7641 -74.0566 233° Southwest  Level Estimated
07:42AM 45.7295 -74.1220 233° Southwest  Level Estimated
07:43AM 45.6949 -74.1873 233° Southwest  Level Estimated
07:44AM 45.6603 -74.2526 233° Southwest  Level Estimated
07:45AM 45.6256 -74.3177 233° Southwest  Level Estimated
07:46AM 45.5909 -74.3828 233° Southwest  Level Estimated
07:47AM 45.5561 -74.4478 233° Southwest  Level Estimated
07:48AM 45.5214 -74.5127 233° Southwest  Level Estimated
07:49AM 45.4865 -74.5776 233° Southwest  Level Estimated
07:50AM 45.4517 -74.6423 233° Southwest  Level Estimated
07:51AM 45.4168 -74.7070 232° Southwest  Level Estimated
07:52AM 45.3819 -74.7716 232° Southwest  Level Estimated
07:53AM 45.3469 -74.8361 232° Southwest  Level Estimated
07:54AM 45.3119 -74.9006 232° Southwest  Level Estimated
07:55AM 45.2769 -74.9649 232° Southwest  Level Estimated
07:56AM 45.2418 -75.0292 232° Southwest  Level Estimated
07:57AM 45.2067 -75.0934 232° Southwest  Level Estimated
07:58AM 45.1715 -75.1575 232° Southwest  Level Estimated
07:59AM 45.1363 -75.2216 232° Southwest  Level Estimated
08:00AM 45.1011 -75.2855 232° Southwest  Level Estimated
08:01AM 45.0659 -75.3494 232° Southwest  Level Estimated
08:02AM 45.0306 -75.4132 232° Southwest  Level Estimated
08:03AM 44.9952 -75.4769 232° Southwest  Level Estimated
08:04AM 44.9599 -75.5406 232° Southwest  Level Estimated
08:05AM 44.9245 -75.6041 232° Southwest  Level Estimated
08:06AM 44.8890 -75.6676 232° Southwest  Level Estimated
08:07AM 44.8536 -75.7310 232° Southwest  Level Estimated
08:08AM 44.8181 -75.7944 232° Southwest  Level Estimated
08:09AM 44.7825 -75.8576 232° Southwest  Level Estimated
08:10AM 44.7470 -75.9208 232° Southwest  Level Estimated
08:11AM 44.7114 -75.9839 232° Southwest  Level Estimated
08:12AM 44.6757 -76.0469 232° Southwest  Level Estimated
08:13AM 44.6400 -76.1099 231° Southwest  Level Estimated
08:14AM 44.6043 -76.1727 231° Southwest  Level Estimated
08:15AM 44.5686 -76.2355 231° Southwest  Level Estimated
08:16AM 44.5328 -76.2982 231° Southwest  Level Estimated
08:17AM 44.4970 -76.3609 231° Southwest  Level Estimated
08:18AM 44.4612 -76.4234 231° Southwest  Level Estimated
08:19AM 44.4253 -76.4859 231° Southwest  Level Estimated
08:20AM 44.3894 -76.5483 231° Southwest  Level Estimated
08:21AM 44.3534 -76.6106 231° Southwest  Level Estimated
08:22AM 44.3174 -76.6729 231° Southwest  Level Estimated
08:23AM 44.2814 -76.7351 231° Southwest  Level Estimated
08:24AM 44.2453 -76.7972 231° Southwest  Level Estimated
08:25AM 44.2093 -76.8592 231° Southwest  Level Estimated
08:26AM 44.1731 -76.9211 231° Southwest  Level Estimated
08:27AM 44.1370 -76.9830 231° Southwest  Level Estimated
08:28AM 44.1008 -77.0448 231° Southwest  Level Estimated
08:29AM 44.0646 -77.1065 231° Southwest  Level Estimated
08:30AM 44.0284 -77.1682 231° Southwest  Level Estimated
08:31AM 43.9921 -77.2297 231° Southwest  Level Estimated
08:32AM 43.9557 -77.2912 231° Southwest  Level Estimated
08:33AM 43.9194 -77.3526 231° Southwest  Level Estimated
08:34AM 43.8830 -77.4140 231° Southwest  Level Estimated
08:35AM 43.8466 -77.4752 231° Southwest  Level Estimated
08:36AM 43.8102 -77.5364 230° Southwest  Level Estimated
08:37AM 43.7737 -77.5975 230° Southwest  Level Estimated
08:38AM 43.7372 -77.6586 230° Southwest  Level Estimated
08:39AM 43.7006 -77.7196 230° Southwest  Level Estimated
08:40AM 43.6640 -77.7805 230° Southwest  Level Estimated
08:41AM 43.6274 -77.8413 230° Southwest  Level Estimated
08:42AM 43.5908 -77.9020 230° Southwest  Level Estimated
08:43AM 43.5541 -77.9627 230° Southwest  Level Estimated
08:44AM 43.5174 -78.0233 230° Southwest  Level Estimated
08:45AM 43.4807 -78.0838 230° Southwest  Level Estimated
08:46AM 43.4439 -78.1443 230° Southwest  Level Estimated
08:47AM 43.4071 -78.2047 230° Southwest  Level Estimated
08:48AM 43.3703 -78.2650 230° Southwest  Level Estimated
08:49AM 43.3334 -78.3252 230° Southwest  Level Estimated
08:50AM 43.2965 -78.3854 230° Southwest  Level Estimated
08:51AM 43.2596 -78.4454 230° Southwest  Level Estimated
08:52AM 43.2226 -78.5054 230° Southwest  Level Estimated
08:53AM 43.1856 -78.5654 230° Southwest  Level Estimated
08:54AM 43.1486 -78.6253 230° Southwest  Level Estimated
08:55AM 43.1115 -78.6851 230° Southwest  Level Estimated
08:56AM 43.0745 -78.7448 230° Southwest  Level Estimated
08:57AM 43.0373 -78.8044 230° Southwest  Level Estimated
08:58AM 43.0002 -78.8640 230° Southwest  Level Estimated
08:59AM 42.9630 -78.9235 230° Southwest  Level Estimated
09:00AM 42.9258 -78.9829 229° Southwest  Level Estimated
09:01AM 42.8885 -79.0423 229° Southwest  Level Estimated
09:02AM 42.8513 -79.1016 229° Southwest  Level Estimated
09:03AM 42.8140 -79.1608 229° Southwest  Level Estimated
09:04AM 42.7766 -79.2200 229° Southwest  Level Estimated
09:05AM 42.7393 -79.2790 229° Southwest  Level Estimated
09:06AM 42.7019 -79.3381 229° Southwest  Level Estimated
09:07AM 42.6645 -79.3970 229° Southwest  Level Estimated
09:08AM 42.6270 -79.4558 229° Southwest  Level Estimated
09:09AM 42.5896 -79.5146 229° Southwest  Level Estimated
09:10AM 42.5520 -79.5733 229° Southwest  Level Estimated
09:11AM 42.5145 -79.6320 229° Southwest  Level Estimated
09:12AM 42.4769 -79.6906 229° Southwest  Level Estimated
09:13AM 42.4393 -79.7491 229° Southwest  Level Estimated
09:14AM 42.4017 -79.8075 229° Southwest  Level Estimated
09:15AM 42.3640 -79.8659 229° Southwest  Level Estimated
09:16AM 42.3264 -79.9242 229° Southwest  Level Estimated
09:17AM 42.2886 -79.9824 229° Southwest  Level Estimated
09:18AM 42.2509 -80.0406 229° Southwest  Level Estimated
09:19AM 42.2131 -80.0987 229° Southwest  Level Estimated
09:20AM 42.1753 -80.1567 229° Southwest  Level Estimated
09:21AM 42.1375 -80.2147 229° Southwest  Level Estimated
09:22AM 42.0996 -80.2725 229° Southwest  Level Estimated
09:23AM 42.0617 -80.3303 229° Southwest  Level Estimated
09:24AM 42.0238 -80.3881 229° Southwest  Level Estimated
09:25AM 41.9858 -80.4458 228° Southwest  Level Estimated
09:26AM 41.9478 -80.5034 228° Southwest  Level Estimated
09:27AM 41.9098 -80.5609 228° Southwest  Level Estimated
09:28AM 41.8718 -80.6184 228° Southwest  Level Estimated
09:29AM 41.8337 -80.6758 228° Southwest  Level Estimated
09:30AM 41.7956 -80.7331 228° Southwest  Level Estimated
09:31AM 41.7575 -80.7904 228° Southwest  Level Estimated
09:32AM 41.7193 -80.8476 228° Southwest  Level Estimated
09:33AM 41.6811 -80.9047 228° Southwest  Level Estimated
09:34AM 41.6429 -80.9618 228° Southwest  Level Estimated
09:35AM 41.6047 -81.0188 228° Southwest  Level Estimated
09:36AM 41.5664 -81.0757 228° Southwest  Level Estimated
09:37AM 41.5281 -81.1326 228° Southwest  Level Estimated
09:38AM 41.4898 -81.1893 228° Southwest  Level Estimated
09:39AM 41.4515 -81.2461 228° Southwest  Level Estimated
09:40AM 41.4131 -81.3027 228° Southwest  Level Estimated
09:41AM 41.3747 -81.3593 228° Southwest  Level Estimated
09:42AM 41.3362 -81.4158 228° Southwest  Level Estimated
09:43AM 41.2978 -81.4723 228° Southwest  Level Estimated
09:44AM 41.2593 -81.5287 228° Southwest  Level Estimated
09:45AM 41.2208 -81.5850 228° Southwest  Level Estimated
09:46AM 41.1822 -81.6413 228° Southwest  Level Estimated
09:47AM 41.1437 -81.6974 228° Southwest  Level Estimated
09:48AM 41.1051 -81.7536 228° Southwest  Level Estimated
09:49AM 41.0664 -81.8096 228° Southwest  Level Estimated
09:50AM 41.0278 -81.8656 228° Southwest  Level Estimated
09:51AM 40.9891 -81.9216 228° Southwest  Level Estimated
09:52AM 40.9504 -81.9774 227° Southwest  Level Estimated
09:53AM 40.9117 -82.0332 227° Southwest  Level Estimated
09:54AM 40.8729 -82.0890 227° Southwest  Level Estimated
09:55AM 40.8341 -82.1446 227° Southwest  Level Estimated
09:56AM 40.7953 -82.2002 227° Southwest  Level Estimated
09:57AM 40.7565 -82.2558 227° Southwest  Level Estimated
09:58AM 40.7176 -82.3112 227° Southwest  Level Estimated
09:59AM 40.6787 -82.3666 227° Southwest  Level Estimated
10:00AM 40.6398 -82.4220 227° Southwest  Level Estimated
10:01AM 40.6008 -82.4773 227° Southwest  Level Estimated
10:02AM 40.5619 -82.5325 227° Southwest  Level Estimated
10:03AM 40.5229 -82.5876 227° Southwest  Level Estimated
10:04AM 40.4838 -82.6427 227° Southwest  Level Estimated
10:05AM 40.4448 -82.6977 227° Southwest  Level Estimated
10:06AM 40.4057 -82.7527 227° Southwest  Level Estimated
10:07AM 40.3666 -82.8076 227° Southwest  Level Estimated
10:08AM 40.3275 -82.8624 227° Southwest  Level Estimated
10:09AM 40.2883 -82.9172 227° Southwest  Level Estimated
10:10AM 40.2491 -82.9719 227° Southwest  Level Estimated
10:11AM 40.2099 -83.0265 227° Southwest  Level Estimated
10:12AM 40.1707 -83.0811 227° Southwest  Level Estimated
10:13AM 40.1314 -83.1356 227° Southwest  Level Estimated
10:14AM 40.0922 -83.1900 227° Southwest  Level Estimated
10:15AM 40.0528 -83.2444 227° Southwest  Level Estimated
10:16AM 40.0135 -83.2988 227° Southwest  Level Estimated
10:17AM 39.9741 -83.3530 227° Southwest  Level Estimated
10:18AM 39.9347 -83.4072 227° Southwest  Level Estimated
10:19AM 39.8953 -83.4614 227° Southwest  Level Estimated
10:20AM 39.8559 -83.5154 226° Southwest  Level Estimated
10:21AM 39.8164 -83.5694 226° Southwest  Level Estimated
10:22AM 39.7770 -83.6234 226° Southwest  Level Estimated
10:23AM 39.7374 -83.6773 226° Southwest  Level Estimated
10:24AM 39.6979 -83.7311 226° Southwest  Level Estimated
10:25AM 39.6583 -83.7849 226° Southwest  Level Estimated
10:26AM 39.6188 -83.8386 226° Southwest  Level Estimated
10:27AM 39.5791 -83.8922 226° Southwest  Level Estimated
10:28AM 39.5395 -83.9458 226° Southwest  Level Estimated
10:29AM 39.4999 -83.9993 226° Southwest  Level Estimated
10:30AM 39.4602 -84.0528 226° Southwest  Level Estimated
10:31AM 39.4205 -84.1062 226° Southwest  Level Estimated
10:32AM 39.3807 -84.1595 226° Southwest  Level Estimated
10:33AM 39.3410 -84.2128 226° Southwest  Level Estimated
10:34AM 39.3012 -84.2660 226° Southwest  Level Estimated
10:35AM 39.2614 -84.3192 226° Southwest  Level Estimated
10:36AM 39.2215 -84.3722 226° Southwest  Level Estimated
10:37AM 39.1817 -84.4253 226° Southwest  Level Estimated
10:38AM 39.1418 -84.4782 226° Southwest  Level Estimated
10:39AM 39.1019 -84.5312 226° Southwest  Level Estimated
10:40AM 39.0620 -84.5840 226° Southwest  Level Estimated
10:41AM 39.0220 -84.6368 226° Southwest  Level Estimated
10:42AM 38.9821 -84.6895 226° Southwest  Level Estimated
10:43AM 38.9421 -84.7422 226° Southwest  Level Estimated
10:44AM 38.9021 -84.7948 226° Southwest  Level Estimated
10:45AM 38.8620 -84.8474 226° Southwest  Level Estimated
10:46AM 38.8219 -84.8999 226° Southwest  Level Estimated
10:47AM 38.7818 -84.9523 226° Southwest  Level Estimated
10:48AM 38.7417 -85.0047 226° Southwest  Level Estimated
10:49AM 38.7016 -85.0570 225° Southwest  Level Estimated
10:50AM 38.6614 -85.1093 225° Southwest  Level Estimated
10:51AM 38.6213 -85.1615 225° Southwest  Level Estimated
10:52AM 38.5811 -85.2136 225° Southwest  Level Estimated
10:53AM 38.5408 -85.2657 225° Southwest  Level Estimated
10:54AM 38.5006 -85.3177 225° Southwest  Level Estimated
10:55AM 38.4603 -85.3697 225° Southwest  Level Estimated
10:56AM 38.4200 -85.4216 225° Southwest  Level Estimated
10:57AM 38.3797 -85.4735 225° Southwest  Level Estimated
10:58AM 38.3393 -85.5253 225° Southwest  Level Estimated
10:59AM 38.2990 -85.5770 225° Southwest  Level Estimated
11:00AM 38.2586 -85.6287 225° Southwest  Level Estimated
11:01AM 38.2182 -85.6803 225° Southwest  Level Estimated
11:02AM 38.1777 -85.7319 225° Southwest  Level Estimated
11:03AM 38.1741 -85.7365 225° Southwest  Level Estimated
11:04AM 38.1741 -85.7365 168° South  Level Estimated
11:05AM 38.1741 -85.7365 168° South  Level Estimated
11:06AM 38.1741 -85.7365 168° South  Level Estimated
11:07AM 38.1741 -85.7365 168° South  Level Estimated
11:08AM 38.1741 -85.7365 168° South  Level Estimated
11:09AM 38.1741 -85.7365 168° South  Level Estimated
11:10AM 38.1741 -85.7365 168° South  Level Estimated
11:11AM 38.1741 -85.7365 168° South  Level Estimated
11:12AM 38.1741 -85.7365 168° South  Level Estimated
11:13AM 38.1741 -85.7365 168° South  Level Estimated
11:14AM 38.1741 -85.7365 168° South  Level Estimated
11:15AM 38.1741 -85.7365 168° South  Level Estimated
11:16AM 38.1741 -85.7365 168° South  Level Estimated
11:17AM 38.1741 -85.7365 168° South  Level Estimated
11:18AM 38.1741 -85.7365 168° South  Level Estimated